AirNav   Pilot Hours Calculator
 
 1193 users online  

9MI8 Jott Heliport
Utica, Michigan, USA

GOING TO UTICA?


FAA INFORMATION EFFECTIVE 07 NOVEMBER 2019

Location

FAA Identifier: 9MI8
Lat/Long: 42-39-39.1170N 082-59-46.7380W
42-39.651950N 082-59.778967W
42.6608658,-82.9963161
(estimated)
Elevation: 630 ft. / 192 m (estimated)
Variation: 06W (1985)
From city: 4 miles N of UTICA, MI
Time zone: UTC -5 (UTC -4 during Daylight Saving Time)
Zip code: 48315

Heliport Operations

Heliport use: Private use, PERSONAL USE.
Activation date: 10/1984
Control tower: no
ARTCC: CLEVELAND CENTER
FSS: LANSING FLIGHT SERVICE STATION
Attendance: UNATNDD
Wind indicator: yes
Segmented circle: no

Heliport Communications

WX AWOS-3 at VLL (11 nm SW): 119.475 (248-288-4649)
WX ASOS at DET (15 nm S): PHONE 313-371-9696
WX ASOS at PTK (19 nm W): 125.025 (248-886-8551)

Nearby radio navigation aids

VOR radial/distance  VOR name  Freq  Var
YQGr349/25.8WINDSOR VOR/DME113.8006W
SVMr063/30.4SALEM VORTAC114.3003W
DXOr037/31.5DETROIT VOR/DME113.4006W
FNTr125/37.8FLINT VORTAC116.9006W

 
NDB name  Hdg/Dist  Freq  Var  ID
GROSSE ILE019/34.341907WRYS .-. -.-- ...

Heliport Services

Runway Information

Helipad H1

Dimensions: 30 x 30 ft. / 9 x 9 m
Surface: concrete
Traffic pattern: leftleft

Heliport Ownership and Management from official FAA records

Ownership: Privately-owned
Owner: JOHN BERNARD VOHS
49567 SCHOENHERR
SHELBY TWP, MI 48315
Phone 586-219-9260
Manager: JOHN BERNARD VOHS
49567 SCHOENHERR
SHELBY TWP, MI 48315
Phone 586-219-9260

Heliport Operational Statistics

Aircraft based on the field: 1
Helicopters: 1
    

Additional Remarks

FOR CD CTC CLEVELAND ARTCC AT 440-774-0490.

Instrument Procedures

There are no published instrument procedures at 9MI8.

Some nearby airports with instrument procedures:

57D - Ray Community Airport (7 nm NE)
KMTC - Selfridge Air National Guard Base (8 nm E)
D98 - Romeo State Airport (8 nm N)
KVLL - Oakland/Troy Airport (11 nm SW)
KDET - Coleman A Young Municipal Airport (15 nm S)
KPTK - Oakland County International Airport (19 nm W)
 
Loc | Ops | Rwys | IFR | FBO | Links
Com | Nav | Svcs | Stats | Notes
Area around 9MI8 (Jott Heliport)
 
Road maps at: MapQuest Bing Google
 
Aerial photo
No photo
 
Sectional chart

 
Airport distance calculator
Flying to Jott Heliport? Find the distance to fly.

From to 9MI8

Sunrise and sunset
Times for 15-Nov-2019
 Local
(UTC-5)
 Zulu
(UTC)
Morning civil twilight06:5411:54
Sunrise07:2512:25
Sunset17:0922:09
Evening civil twilight17:3922:39

Current date and time
Zulu (UTC)  15-Nov-2019 21:28:40
Local (UTC-5)  15-Nov-2019 16:28:40
 
METAR
KMTC 
8nm E 
152056Z 27006KT 6SM HZ BKN020 BKN200 02/M03 A3032 RMK SLP281 WND DATA ESTMD ALSTG/SLP ESTMD 53014
KVLL 
11nm SW 
152115Z AUTO 00000KT 10SM OVC023 02/M02 A3033 RMK AO2 T00171023
KDET 
16nm S 
152053Z 34005KT 10SM OVC023 02/M03 A3032 RMK AO2 SLP272 T00221033 53012
KPTK 
19nm W 
152114Z 33009KT 10SM SCT022 BKN240 01/M04 A3030 RMK AO2 T00061044
TAF
KMTC 
8nm E 
151700Z 1517/1623 VRB06KT 9999 BKN015 620154 QNH3026INS BECMG 1600/1601 VRB06KT 9999 BKN020 620204 QNH3035INS BECMG 1611/1612 06009KT 9999 FEW020 QNH3046INS TX01/1521Z TNM08/1612Z
KDET 
16nm S 
152016Z 1520/1618 31007KT P6SM OVC020 FM160000 35004KT P6SM BKN025 FM160600 03006KT P6SM BKN030 FM161000 04005KT P6SM SCT025 BKN200 FM161400 06009KT P6SM BKN025
KPTK 
19nm W 
152016Z 1520/1618 31007KT P6SM BKN020 FM160000 35004KT P6SM SCT025 FM160600 03006KT P6SM BKN028 FM161200 04005KT P6SM SCT025 BKN200 FM161600 06009KT P6SM BKN025
NOTAMs
Click for the latest NOTAMs
NOTAMs are issued by the DoD/FAA and will open in a separate window not controlled by AirNav.

 

 
 

Would you like to see your business listed on this page?

 If your business provides an interesting product or service to pilots, flight crews, aircraft, or users of the Jott Heliport, you should consider listing it here.  To start the listing process, click on the button below
 
Add a business
 

Other Pages about Jott Heliport

Update a link
 
Copyright © AirNav, LLC. All rights reserved. Privacy Policy  Contact